sensor_id;sensor_type;location;lat;lon;timestamp;P1;durP1;ratioP1;P2;durP2;ratioP2
20411;SDS011;10365;52.578;8.138;2022-12-07T00:01:30;34.05;;;15.55;;
20411;SDS011;10365;52.578;8.138;2022-12-07T00:03:56;34.20;;;17.42;;
20411;SDS011;10365;52.578;8.138;2022-12-07T00:06:25;42.67;;;16.60;;
20411;SDS011;10365;52.578;8.138;2022-12-07T00:08:51;33.33;;;15.68;;
20411;SDS011;10365;52.578;8.138;2022-12-07T00:11:17;31.08;;;15.68;;
20411;SDS011;10365;52.578;8.138;2022-12-07T00:13:43;29.40;;;15.27;;
20411;SDS011;10365;52.578;8.138;2022-12-07T00:16:13;29.00;;;15.27;;
20411;SDS011;10365;52.578;8.138;2022-12-07T00:18:39;31.52;;;14.60;;
20411;SDS011;10365;52.578;8.138;2022-12-07T00:21:12;28.95;;;14.30;;
20411;SDS011;10365;52.578;8.138;2022-12-07T00:23:38;27.88;;;13.07;;
20411;SDS011;10365;52.578;8.138;2022-12-07T00:26:05;29.90;;;14.30;;
20411;SDS011;10365;52.578;8.138;2022-12-07T00:28:30;27.17;;;12.48;;
20411;SDS011;10365;52.578;8.138;2022-12-07T00:31:00;26.58;;;13.05;;
20411;SDS011;10365;52.578;8.138;2022-12-07T00:33:25;26.35;;;12.15;;
20411;SDS011;10365;52.578;8.138;2022-12-07T00:35:57;22.55;;;12.10;;
20411;SDS011;10365;52.578;8.138;2022-12-07T00:38:24;24.45;;;11.93;;
20411;SDS011;10365;52.578;8.138;2022-12-07T00:40:59;23.13;;;12.10;;
20411;SDS011;10365;52.578;8.138;2022-12-07T00:43:25;24.65;;;11.38;;
20411;SDS011;10365;52.578;8.138;2022-12-07T00:45:51;23.85;;;11.30;;
20411;SDS011;10365;52.578;8.138;2022-12-07T00:48:16;22.77;;;11.10;;
20411;SDS011;10365;52.578;8.138;2022-12-07T00:50:42;26.95;;;11.45;;
20411;SDS011;10365;52.578;8.138;2022-12-07T00:53:07;24.98;;;12.35;;
20411;SDS011;10365;52.578;8.138;2022-12-07T00:55:33;24.25;;;11.23;;
20411;SDS011;10365;52.578;8.138;2022-12-07T00:57:58;24.02;;;12.13;;
20411;SDS011;10365;52.578;8.138;2022-12-07T01:00:24;22.77;;;11.32;;
20411;SDS011;10365;52.578;8.138;2022-12-07T01:02:49;23.42;;;11.68;;
20411;SDS011;10365;52.578;8.138;2022-12-07T01:05:14;26.58;;;11.48;;
20411;SDS011;10365;52.578;8.138;2022-12-07T01:07:40;23.02;;;11.20;;
20411;SDS011;10365;52.578;8.138;2022-12-07T01:10:05;20.25;;;10.23;;
20411;SDS011;10365;52.578;8.138;2022-12-07T01:12:31;23.05;;;10.27;;
20411;SDS011;10365;52.578;8.138;2022-12-07T01:14:56;20.60;;;9.65;;
20411;SDS011;10365;52.578;8.138;2022-12-07T01:17:21;24.23;;;10.02;;
20411;SDS011;10365;52.578;8.138;2022-12-07T01:19:47;20.33;;;9.73;;
20411;SDS011;10365;52.578;8.138;2022-12-07T01:22:12;21.05;;;10.00;;
20411;SDS011;10365;52.578;8.138;2022-12-07T01:24:37;18.77;;;9.32;;
20411;SDS011;10365;52.578;8.138;2022-12-07T01:27:03;23.60;;;10.13;;
20411;SDS011;10365;52.578;8.138;2022-12-07T01:29:28;24.52;;;10.02;;
20411;SDS011;10365;52.578;8.138;2022-12-07T01:31:54;18.25;;;9.57;;
20411;SDS011;10365;52.578;8.138;2022-12-07T01:34:19;22.85;;;9.27;;
20411;SDS011;10365;52.578;8.138;2022-12-07T01:36:44;20.70;;;9.93;;
20411;SDS011;10365;52.578;8.138;2022-12-07T01:39:10;18.80;;;9.27;;
20411;SDS011;10365;52.578;8.138;2022-12-07T01:41:37;23.27;;;9.70;;
20411;SDS011;10365;52.578;8.138;2022-12-07T01:44:21;23.75;;;10.43;;
20411;SDS011;10365;52.578;8.138;2022-12-07T01:46:51;21.25;;;10.32;;
20411;SDS011;10365;52.578;8.138;2022-12-07T01:52:17;22.38;;;8.88;;
20411;SDS011;10365;52.578;8.138;2022-12-07T01:54:45;22.52;;;9.65;;
20411;SDS011;10365;52.578;8.138;2022-12-07T01:57:11;26.40;;;9.98;;
20411;SDS011;10365;52.578;8.138;2022-12-07T01:59:38;22.98;;;9.93;;
20411;SDS011;10365;52.578;8.138;2022-12-07T02:02:04;23.77;;;8.82;;
20411;SDS011;10365;52.578;8.138;2022-12-07T02:04:32;17.50;;;9.00;;
20411;SDS011;10365;52.578;8.138;2022-12-07T02:06:58;23.00;;;9.32;;
20411;SDS011;10365;52.578;8.138;2022-12-07T02:09:24;23.15;;;10.02;;
20411;SDS011;10365;52.578;8.138;2022-12-07T02:11:49;27.00;;;9.18;;
20411;SDS011;10365;52.578;8.138;2022-12-07T02:14:14;24.50;;;9.10;;
20411;SDS011;10365;52.578;8.138;2022-12-07T02:21:47;20.88;;;9.20;;
20411;SDS011;10365;52.578;8.138;2022-12-07T02:29:26;21.60;;;8.55;;
20411;SDS011;10365;52.578;8.138;2022-12-07T02:31:58;18.02;;;7.80;;
20411;SDS011;10365;52.578;8.138;2022-12-07T02:36:55;18.38;;;7.75;;
20411;SDS011;10365;52.578;8.138;2022-12-07T02:41:55;19.98;;;7.72;;
20411;SDS011;10365;52.578;8.138;2022-12-07T02:44:23;15.25;;;7.25;;
20411;SDS011;10365;52.578;8.138;2022-12-07T02:46:52;12.48;;;6.07;;
20411;SDS011;10365;52.578;8.138;2022-12-07T02:49:18;14.93;;;6.55;;
20411;SDS011;10365;52.578;8.138;2022-12-07T02:51:45;21.65;;;6.80;;
20411;SDS011;10365;52.578;8.138;2022-12-07T02:54:15;18.00;;;6.35;;
20411;SDS011;10365;52.578;8.138;2022-12-07T02:56:45;16.67;;;6.20;;
20411;SDS011;10365;52.578;8.138;2022-12-07T02:59:24;14.20;;;5.80;;
20411;SDS011;10365;52.578;8.138;2022-12-07T03:04:45;14.23;;;5.32;;
20411;SDS011;10365;52.578;8.138;2022-12-07T03:09:49;12.43;;;5.65;;
20411;SDS011;10365;52.578;8.138;2022-12-07T03:12:21;20.63;;;4.20;;
20411;SDS011;10365;52.578;8.138;2022-12-07T03:14:52;12.65;;;4.28;;
20411;SDS011;10365;52.578;8.138;2022-12-07T03:17:24;10.93;;;4.18;;
20411;SDS011;10365;52.578;8.138;2022-12-07T03:19:51;16.60;;;4.55;;
20411;SDS011;10365;52.578;8.138;2022-12-07T03:22:18;10.15;;;3.70;;
20411;SDS011;10365;52.578;8.138;2022-12-07T03:24:50;9.45;;;3.22;;
20411;SDS011;10365;52.578;8.138;2022-12-07T03:27:24;15.93;;;3.97;;
20411;SDS011;10365;52.578;8.138;2022-12-07T03:29:54;12.70;;;3.80;;
20411;SDS011;10365;52.578;8.138;2022-12-07T03:35:16;9.30;;;2.83;;
20411;SDS011;10365;52.578;8.138;2022-12-07T03:37:48;11.43;;;3.03;;
20411;SDS011;10365;52.578;8.138;2022-12-07T03:42:56;9.85;;;2.67;;
20411;SDS011;10365;52.578;8.138;2022-12-07T03:45:27;9.73;;;3.20;;
20411;SDS011;10365;52.578;8.138;2022-12-07T03:53:13;8.00;;;2.33;;
20411;SDS011;10365;52.578;8.138;2022-12-07T03:55:42;13.32;;;2.42;;
20411;SDS011;10365;52.578;8.138;2022-12-07T03:58:09;15.88;;;2.08;;
20411;SDS011;10365;52.578;8.138;2022-12-07T04:00:35;8.48;;;1.75;;
20411;SDS011;10365;52.578;8.138;2022-12-07T04:03:01;12.00;;;2.25;;
20411;SDS011;10365;52.578;8.138;2022-12-07T04:05:26;10.50;;;1.70;;
20411;SDS011;10365;52.578;8.138;2022-12-07T04:07:52;11.00;;;2.17;;
20411;SDS011;10365;52.578;8.138;2022-12-07T04:10:17;5.97;;;1.50;;
20411;SDS011;10365;52.578;8.138;2022-12-07T04:12:43;10.18;;;1.90;;
20411;SDS011;10365;52.578;8.138;2022-12-07T04:15:09;6.80;;;1.85;;
20411;SDS011;10365;52.578;8.138;2022-12-07T04:17:34;11.13;;;1.83;;
20411;SDS011;10365;52.578;8.138;2022-12-07T04:20:00;8.35;;;2.22;;
20411;SDS011;10365;52.578;8.138;2022-12-07T04:22:25;6.28;;;1.42;;
20411;SDS011;10365;52.578;8.138;2022-12-07T04:24:51;13.88;;;1.75;;
20411;SDS011;10365;52.578;8.138;2022-12-07T04:27:16;10.32;;;1.52;;
20411;SDS011;10365;52.578;8.138;2022-12-07T04:29:41;8.93;;;1.90;;
20411;SDS011;10365;52.578;8.138;2022-12-07T04:32:07;6.93;;;1.40;;
20411;SDS011;10365;52.578;8.138;2022-12-07T04:34:32;11.45;;;1.25;;
20411;SDS011;10365;52.578;8.138;2022-12-07T04:36:58;9.25;;;1.63;;
20411;SDS011;10365;52.578;8.138;2022-12-07T04:39:25;9.85;;;1.75;;
20411;SDS011;10365;52.578;8.138;2022-12-07T04:41:52;10.23;;;1.77;;
20411;SDS011;10365;52.578;8.138;2022-12-07T04:44:18;7.55;;;1.45;;
20411;SDS011;10365;52.578;8.138;2022-12-07T04:46:43;13.10;;;2.20;;
20411;SDS011;10365;52.578;8.138;2022-12-07T04:49:09;6.95;;;1.35;;
20411;SDS011;10365;52.578;8.138;2022-12-07T04:51:35;6.90;;;1.15;;
20411;SDS011;10365;52.578;8.138;2022-12-07T04:54:00;8.90;;;1.58;;
20411;SDS011;10365;52.578;8.138;2022-12-07T04:56:26;7.45;;;1.23;;
20411;SDS011;10365;52.578;8.138;2022-12-07T04:58:51;8.13;;;1.50;;
20411;SDS011;10365;52.578;8.138;2022-12-07T05:01:17;11.75;;;1.40;;
20411;SDS011;10365;52.578;8.138;2022-12-07T05:03:43;13.05;;;1.67;;
20411;SDS011;10365;52.578;8.138;2022-12-07T05:06:08;9.40;;;0.88;;
20411;SDS011;10365;52.578;8.138;2022-12-07T05:08:35;7.55;;;1.40;;
20411;SDS011;10365;52.578;8.138;2022-12-07T05:11:00;8.65;;;1.17;;
20411;SDS011;10365;52.578;8.138;2022-12-07T05:13:26;7.10;;;1.17;;
20411;SDS011;10365;52.578;8.138;2022-12-07T05:15:52;4.25;;;1.27;;
20411;SDS011;10365;52.578;8.138;2022-12-07T05:18:17;8.68;;;1.30;;
20411;SDS011;10365;52.578;8.138;2022-12-07T05:20:43;8.80;;;1.38;;
20411;SDS011;10365;52.578;8.138;2022-12-07T05:23:09;11.93;;;1.30;;
20411;SDS011;10365;52.578;8.138;2022-12-07T05:25:34;5.88;;;1.10;;
20411;SDS011;10365;52.578;8.138;2022-12-07T05:28:00;7.80;;;1.20;;
20411;SDS011;10365;52.578;8.138;2022-12-07T05:30:25;9.05;;;1.85;;
20411;SDS011;10365;52.578;8.138;2022-12-07T05:32:52;10.45;;;1.40;;
20411;SDS011;10365;52.578;8.138;2022-12-07T05:35:18;9.70;;;1.17;;
20411;SDS011;10365;52.578;8.138;2022-12-07T05:37:44;5.57;;;1.40;;
20411;SDS011;10365;52.578;8.138;2022-12-07T05:40:10;7.32;;;1.20;;
20411;SDS011;10365;52.578;8.138;2022-12-07T05:42:35;11.15;;;1.48;;
20411;SDS011;10365;52.578;8.138;2022-12-07T05:45:01;6.15;;;1.00;;
20411;SDS011;10365;52.578;8.138;2022-12-07T05:47:27;7.85;;;0.80;;
20411;SDS011;10365;52.578;8.138;2022-12-07T05:49:52;8.48;;;1.42;;
20411;SDS011;10365;52.578;8.138;2022-12-07T05:52:17;7.28;;;1.27;;
20411;SDS011;10365;52.578;8.138;2022-12-07T05:54:43;11.77;;;1.30;;
20411;SDS011;10365;52.578;8.138;2022-12-07T05:57:08;9.55;;;1.35;;
20411;SDS011;10365;52.578;8.138;2022-12-07T05:59:34;7.55;;;1.17;;
20411;SDS011;10365;52.578;8.138;2022-12-07T06:02:00;5.15;;;1.08;;
20411;SDS011;10365;52.578;8.138;2022-12-07T06:04:27;9.05;;;1.13;;
20411;SDS011;10365;52.578;8.138;2022-12-07T06:06:52;5.07;;;1.23;;
20411;SDS011;10365;52.578;8.138;2022-12-07T06:09:18;4.25;;;1.10;;
20411;SDS011;10365;52.578;8.138;2022-12-07T06:11:44;15.90;;;1.30;;
20411;SDS011;10365;52.578;8.138;2022-12-07T06:14:28;16.40;;;1.80;;
20411;SDS011;10365;52.578;8.138;2022-12-07T06:16:54;8.98;;;1.50;;
20411;SDS011;10365;52.578;8.138;2022-12-07T06:19:19;16.20;;;1.40;;
20411;SDS011;10365;52.578;8.138;2022-12-07T06:21:45;9.50;;;1.45;;
20411;SDS011;10365;52.578;8.138;2022-12-07T06:24:14;3.67;;;1.00;;
20411;SDS011;10365;52.578;8.138;2022-12-07T06:26:39;10.20;;;1.23;;
20411;SDS011;10365;52.578;8.138;2022-12-07T06:29:05;5.15;;;0.90;;
20411;SDS011;10365;52.578;8.138;2022-12-07T06:31:31;5.70;;;1.10;;
20411;SDS011;10365;52.578;8.138;2022-12-07T06:34:00;8.70;;;1.45;;
20411;SDS011;10365;52.578;8.138;2022-12-07T06:36:25;7.50;;;1.20;;
20411;SDS011;10365;52.578;8.138;2022-12-07T06:38:51;9.70;;;1.10;;
20411;SDS011;10365;52.578;8.138;2022-12-07T06:41:17;14.70;;;1.38;;
20411;SDS011;10365;52.578;8.138;2022-12-07T06:43:42;7.53;;;1.10;;
20411;SDS011;10365;52.578;8.138;2022-12-07T06:46:08;12.85;;;1.05;;
20411;SDS011;10365;52.578;8.138;2022-12-07T06:48:33;7.15;;;1.27;;
20411;SDS011;10365;52.578;8.138;2022-12-07T06:50:59;8.85;;;1.63;;
20411;SDS011;10365;52.578;8.138;2022-12-07T06:53:24;5.22;;;1.13;;
20411;SDS011;10365;52.578;8.138;2022-12-07T06:55:49;7.40;;;1.50;;
20411;SDS011;10365;52.578;8.138;2022-12-07T06:58:15;7.53;;;1.25;;
20411;SDS011;10365;52.578;8.138;2022-12-07T07:00:42;11.23;;;1.73;;
20411;SDS011;10365;52.578;8.138;2022-12-07T07:03:07;8.68;;;1.58;;
20411;SDS011;10365;52.578;8.138;2022-12-07T07:05:33;8.93;;;1.35;;
20411;SDS011;10365;52.578;8.138;2022-12-07T07:07:58;9.55;;;1.48;;
20411;SDS011;10365;52.578;8.138;2022-12-07T07:10:23;4.80;;;1.30;;
20411;SDS011;10365;52.578;8.138;2022-12-07T07:12:49;7.28;;;1.05;;
20411;SDS011;10365;52.578;8.138;2022-12-07T07:15:14;13.80;;;1.20;;
20411;SDS011;10365;52.578;8.138;2022-12-07T07:17:40;8.32;;;1.58;;
20411;SDS011;10365;52.578;8.138;2022-12-07T07:20:05;7.80;;;1.10;;
20411;SDS011;10365;52.578;8.138;2022-12-07T07:22:31;11.45;;;1.30;;
20411;SDS011;10365;52.578;8.138;2022-12-07T07:24:56;10.60;;;0.90;;
20411;SDS011;10365;52.578;8.138;2022-12-07T07:27:22;5.93;;;1.17;;
20411;SDS011;10365;52.578;8.138;2022-12-07T07:29:47;10.60;;;0.85;;
20411;SDS011;10365;52.578;8.138;2022-12-07T07:32:13;2.40;;;0.95;;
20411;SDS011;10365;52.578;8.138;2022-12-07T07:34:39;4.22;;;1.00;;
20411;SDS011;10365;52.578;8.138;2022-12-07T07:37:04;7.30;;;1.17;;
20411;SDS011;10365;52.578;8.138;2022-12-07T07:39:29;6.07;;;1.20;;
20411;SDS011;10365;52.578;8.138;2022-12-07T07:41:55;8.13;;;1.20;;
20411;SDS011;10365;52.578;8.138;2022-12-07T07:44:24;15.25;;;1.38;;
20411;SDS011;10365;52.578;8.138;2022-12-07T07:46:50;9.95;;;1.42;;
20411;SDS011;10365;52.578;8.138;2022-12-07T07:49:15;9.82;;;1.20;;
20411;SDS011;10365;52.578;8.138;2022-12-07T07:51:41;4.70;;;1.23;;
20411;SDS011;10365;52.578;8.138;2022-12-07T07:54:06;11.95;;;1.40;;
20411;SDS011;10365;52.578;8.138;2022-12-07T07:56:31;8.05;;;1.00;;
20411;SDS011;10365;52.578;8.138;2022-12-07T07:58:57;5.28;;;1.02;;
20411;SDS011;10365;52.578;8.138;2022-12-07T08:01:22;8.32;;;1.00;;
20411;SDS011;10365;52.578;8.138;2022-12-07T08:03:48;19.08;;;1.58;;
20411;SDS011;10365;52.578;8.138;2022-12-07T08:06:13;10.13;;;1.00;;
20411;SDS011;10365;52.578;8.138;2022-12-07T08:08:39;10.65;;;1.27;;
20411;SDS011;10365;52.578;8.138;2022-12-07T08:11:05;8.48;;;1.20;;
20411;SDS011;10365;52.578;8.138;2022-12-07T08:13:30;11.45;;;1.35;;
20411;SDS011;10365;52.578;8.138;2022-12-07T08:15:56;6.43;;;1.23;;
20411;SDS011;10365;52.578;8.138;2022-12-07T08:18:21;8.20;;;1.20;;
20411;SDS011;10365;52.578;8.138;2022-12-07T08:20:47;5.28;;;0.77;;
20411;SDS011;10365;52.578;8.138;2022-12-07T08:23:12;12.82;;;1.20;;
20411;SDS011;10365;52.578;8.138;2022-12-07T08:25:38;13.90;;;1.30;;
20411;SDS011;10365;52.578;8.138;2022-12-07T08:28:03;6.88;;;1.15;;
20411;SDS011;10365;52.578;8.138;2022-12-07T08:30:29;6.00;;;1.13;;
20411;SDS011;10365;52.578;8.138;2022-12-07T08:32:55;16.33;;;1.52;;
20411;SDS011;10365;52.578;8.138;2022-12-07T08:35:20;3.72;;;0.80;;
20411;SDS011;10365;52.578;8.138;2022-12-07T08:37:46;6.97;;;1.30;;
20411;SDS011;10365;52.578;8.138;2022-12-07T08:40:11;5.47;;;1.30;;
20411;SDS011;10365;52.578;8.138;2022-12-07T08:42:40;14.60;;;1.95;;
20411;SDS011;10365;52.578;8.138;2022-12-07T08:45:06;4.43;;;0.85;;
20411;SDS011;10365;52.578;8.138;2022-12-07T08:47:32;5.70;;;1.08;;
20411;SDS011;10365;52.578;8.138;2022-12-07T08:49:58;4.22;;;0.98;;
20411;SDS011;10365;52.578;8.138;2022-12-07T08:52:29;7.90;;;1.30;;
20411;SDS011;10365;52.578;8.138;2022-12-07T08:54:55;9.98;;;0.88;;
20411;SDS011;10365;52.578;8.138;2022-12-07T08:57:20;9.23;;;1.20;;
20411;SDS011;10365;52.578;8.138;2022-12-07T08:59:46;5.65;;;1.00;;
20411;SDS011;10365;52.578;8.138;2022-12-07T09:02:11;6.70;;;1.10;;
20411;SDS011;10365;52.578;8.138;2022-12-07T09:04:36;8.35;;;1.55;;
20411;SDS011;10365;52.578;8.138;2022-12-07T09:07:02;10.85;;;0.95;;
20411;SDS011;10365;52.578;8.138;2022-12-07T09:09:28;9.00;;;1.35;;
20411;SDS011;10365;52.578;8.138;2022-12-07T09:11:53;13.40;;;1.10;;
20411;SDS011;10365;52.578;8.138;2022-12-07T09:14:18;10.45;;;1.30;;
20411;SDS011;10365;52.578;8.138;2022-12-07T09:16:44;4.82;;;1.05;;
20411;SDS011;10365;52.578;8.138;2022-12-07T09:19:09;15.27;;;1.38;;
20411;SDS011;10365;52.578;8.138;2022-12-07T09:21:35;10.57;;;1.33;;
20411;SDS011;10365;52.578;8.138;2022-12-07T09:24:00;13.90;;;1.17;;
20411;SDS011;10365;52.578;8.138;2022-12-07T09:26:25;5.72;;;1.27;;
20411;SDS011;10365;52.578;8.138;2022-12-07T09:28:51;12.70;;;1.75;;
20411;SDS011;10365;52.578;8.138;2022-12-07T09:31:16;8.18;;;1.42;;
20411;SDS011;10365;52.578;8.138;2022-12-07T09:33:42;6.50;;;1.20;;
20411;SDS011;10365;52.578;8.138;2022-12-07T09:36:07;8.02;;;1.67;;
20411;SDS011;10365;52.578;8.138;2022-12-07T09:38:34;11.02;;;1.20;;
20411;SDS011;10365;52.578;8.138;2022-12-07T09:41:04;6.38;;;1.10;;
20411;SDS011;10365;52.578;8.138;2022-12-07T09:43:30;7.35;;;1.20;;
20411;SDS011;10365;52.578;8.138;2022-12-07T09:45:55;9.05;;;1.13;;
20411;SDS011;10365;52.578;8.138;2022-12-07T09:48:22;17.10;;;1.70;;
20411;SDS011;10365;52.578;8.138;2022-12-07T09:50:50;13.15;;;1.33;;
20411;SDS011;10365;52.578;8.138;2022-12-07T09:53:20;11.60;;;1.52;;
20411;SDS011;10365;52.578;8.138;2022-12-07T09:55:47;8.35;;;1.50;;
20411;SDS011;10365;52.578;8.138;2022-12-07T09:58:20;6.28;;;1.33;;
20411;SDS011;10365;52.578;8.138;2022-12-07T10:00:47;9.45;;;1.30;;
20411;SDS011;10365;52.578;8.138;2022-12-07T10:03:12;6.97;;;1.45;;
20411;SDS011;10365;52.578;8.138;2022-12-07T10:05:39;8.20;;;1.42;;
20411;SDS011;10365;52.578;8.138;2022-12-07T10:08:07;6.18;;;0.70;;
20411;SDS011;10365;52.578;8.138;2022-12-07T10:10:33;10.85;;;1.10;;
20411;SDS011;10365;52.578;8.138;2022-12-07T10:13:00;8.52;;;1.15;;
20411;SDS011;10365;52.578;8.138;2022-12-07T10:18:16;8.98;;;0.90;;
20411;SDS011;10365;52.578;8.138;2022-12-07T10:20:42;8.02;;;1.08;;
20411;SDS011;10365;52.578;8.138;2022-12-07T10:23:13;11.98;;;1.25;;
20411;SDS011;10365;52.578;8.138;2022-12-07T10:25:39;6.28;;;1.13;;
20411;SDS011;10365;52.578;8.138;2022-12-07T10:28:16;8.05;;;0.88;;
20411;SDS011;10365;52.578;8.138;2022-12-07T10:30:46;7.22;;;1.15;;
20411;SDS011;10365;52.578;8.138;2022-12-07T10:33:27;7.57;;;1.13;;
20411;SDS011;10365;52.578;8.138;2022-12-07T10:35:53;8.70;;;0.90;;
20411;SDS011;10365;52.578;8.138;2022-12-07T10:38:18;9.20;;;0.98;;
20411;SDS011;10365;52.578;8.138;2022-12-07T10:40:45;4.43;;;1.20;;
20411;SDS011;10365;52.578;8.138;2022-12-07T10:45:41;6.38;;;0.63;;
20411;SDS011;10365;52.578;8.138;2022-12-07T10:49:06;2.78;;;0.90;;
20411;SDS011;10365;52.578;8.138;2022-12-07T11:11:23;3.35;;;0.90;;
20411;SDS011;10365;52.578;8.138;2022-12-07T11:14:55;3.78;;;0.90;;
20411;SDS011;10365;52.578;8.138;2022-12-07T11:24:20;7.07;;;0.70;;
20411;SDS011;10365;52.578;8.138;2022-12-07T11:34:39;5.65;;;1.02;;
20411;SDS011;10365;52.578;8.138;2022-12-07T11:37:09;6.53;;;0.90;;
20411;SDS011;10365;52.578;8.138;2022-12-07T11:42:56;10.80;;;1.42;;
20411;SDS011;10365;52.578;8.138;2022-12-07T11:47:41;7.72;;;1.83;;
20411;SDS011;10365;52.578;8.138;2022-12-07T11:50:32;8.30;;;2.10;;
20411;SDS011;10365;52.578;8.138;2022-12-07T11:52:59;58.92;;;21.30;;
20411;SDS011;10365;52.578;8.138;2022-12-07T11:58:04;18.58;;;7.60;;
20411;SDS011;10365;52.578;8.138;2022-12-07T12:00:30;9.20;;;2.45;;
20411;SDS011;10365;52.578;8.138;2022-12-07T12:03:03;13.02;;;4.13;;
20411;SDS011;10365;52.578;8.138;2022-12-07T12:05:30;22.25;;;6.45;;
20411;SDS011;10365;52.578;8.138;2022-12-07T12:10:27;12.50;;;3.20;;
20411;SDS011;10365;52.578;8.138;2022-12-07T12:15:52;20.77;;;4.65;;
20411;SDS011;10365;52.578;8.138;2022-12-07T12:18:33;14.32;;;2.90;;
20411;SDS011;10365;52.578;8.138;2022-12-07T12:21:04;18.58;;;5.30;;
20411;SDS011;10365;52.578;8.138;2022-12-07T12:23:42;20.95;;;5.43;;
20411;SDS011;10365;52.578;8.138;2022-12-07T12:26:20;10.57;;;3.13;;
20411;SDS011;10365;52.578;8.138;2022-12-07T12:33:37;12.32;;;2.92;;
20411;SDS011;10365;52.578;8.138;2022-12-07T12:46:53;3.75;;;1.48;;
20411;SDS011;10365;52.578;8.138;2022-12-07T12:51:47;5.00;;;1.30;;
20411;SDS011;10365;52.578;8.138;2022-12-07T12:56:46;7.03;;;1.40;;
20411;SDS011;10365;52.578;8.138;2022-12-07T13:01:55;7.82;;;1.05;;
20411;SDS011;10365;52.578;8.138;2022-12-07T13:04:23;7.60;;;1.00;;
20411;SDS011;10365;52.578;8.138;2022-12-07T13:06:49;7.90;;;1.48;;
20411;SDS011;10365;52.578;8.138;2022-12-07T13:09:28;10.05;;;1.10;;
20411;SDS011;10365;52.578;8.138;2022-12-07T13:11:56;10.93;;;2.42;;
20411;SDS011;10365;52.578;8.138;2022-12-07T13:14:39;8.40;;;1.40;;
20411;SDS011;10365;52.578;8.138;2022-12-07T13:17:09;5.90;;;0.90;;
20411;SDS011;10365;52.578;8.138;2022-12-07T13:24:54;3.55;;;0.93;;
20411;SDS011;10365;52.578;8.138;2022-12-07T13:27:19;7.18;;;0.88;;
20411;SDS011;10365;52.578;8.138;2022-12-07T13:29:45;9.38;;;1.40;;
20411;SDS011;10365;52.578;8.138;2022-12-07T13:32:25;9.65;;;1.08;;
20411;SDS011;10365;52.578;8.138;2022-12-07T13:34:50;10.02;;;0.88;;
20411;SDS011;10365;52.578;8.138;2022-12-07T13:37:29;5.53;;;0.90;;
20411;SDS011;10365;52.578;8.138;2022-12-07T13:42:33;6.72;;;0.88;;
20411;SDS011;10365;52.578;8.138;2022-12-07T13:45:00;3.05;;;0.52;;
20411;SDS011;10365;52.578;8.138;2022-12-07T13:47:31;5.28;;;0.93;;
20411;SDS011;10365;52.578;8.138;2022-12-07T13:49:58;10.98;;;0.93;;
20411;SDS011;10365;52.578;8.138;2022-12-07T13:52:25;10.68;;;1.40;;
20411;SDS011;10365;52.578;8.138;2022-12-07T13:57:31;10.00;;;0.90;;
20411;SDS011;10365;52.578;8.138;2022-12-07T13:59:59;8.48;;;1.00;;
20411;SDS011;10365;52.578;8.138;2022-12-07T14:02:26;6.47;;;1.00;;
20411;SDS011;10365;52.578;8.138;2022-12-07T14:05:05;12.50;;;2.63;;
20411;SDS011;10365;52.578;8.138;2022-12-07T14:07:31;15.73;;;5.28;;
20411;SDS011;10365;52.578;8.138;2022-12-07T14:12:24;9.82;;;1.30;;
20411;SDS011;10365;52.578;8.138;2022-12-07T14:14:50;4.70;;;1.02;;
20411;SDS011;10365;52.578;8.138;2022-12-07T14:17:20;4.80;;;1.15;;
20411;SDS011;10365;52.578;8.138;2022-12-07T14:19:48;4.82;;;1.17;;
20411;SDS011;10365;52.578;8.138;2022-12-07T14:22:19;6.78;;;0.98;;
20411;SDS011;10365;52.578;8.138;2022-12-07T14:24:45;8.75;;;0.82;;
20411;SDS011;10365;52.578;8.138;2022-12-07T14:27:19;5.47;;;0.80;;
20411;SDS011;10365;52.578;8.138;2022-12-07T14:29:45;3.72;;;0.65;;
20411;SDS011;10365;52.578;8.138;2022-12-07T14:32:18;5.45;;;1.05;;
20411;SDS011;10365;52.578;8.138;2022-12-07T14:35:01;15.50;;;2.58;;
20411;SDS011;10365;52.578;8.138;2022-12-07T14:37:28;9.85;;;1.52;;
20411;SDS011;10365;52.578;8.138;2022-12-07T14:39:53;6.20;;;1.77;;
20411;SDS011;10365;52.578;8.138;2022-12-07T14:42:19;4.70;;;1.30;;
20411;SDS011;10365;52.578;8.138;2022-12-07T14:44:45;8.38;;;2.60;;
20411;SDS011;10365;52.578;8.138;2022-12-07T14:47:10;8.73;;;1.02;;
20411;SDS011;10365;52.578;8.138;2022-12-07T14:49:36;5.70;;;1.02;;
20411;SDS011;10365;52.578;8.138;2022-12-07T14:52:01;6.82;;;1.45;;
20411;SDS011;10365;52.578;8.138;2022-12-07T14:54:28;5.63;;;1.23;;
20411;SDS011;10365;52.578;8.138;2022-12-07T14:56:54;4.97;;;0.93;;
20411;SDS011;10365;52.578;8.138;2022-12-07T14:59:19;12.80;;;0.90;;
20411;SDS011;10365;52.578;8.138;2022-12-07T15:01:45;7.85;;;0.98;;
20411;SDS011;10365;52.578;8.138;2022-12-07T15:04:11;4.75;;;1.30;;
20411;SDS011;10365;52.578;8.138;2022-12-07T15:06:36;6.78;;;1.60;;
20411;SDS011;10365;52.578;8.138;2022-12-07T15:09:01;5.57;;;1.13;;
20411;SDS011;10365;52.578;8.138;2022-12-07T15:11:27;5.05;;;1.10;;
20411;SDS011;10365;52.578;8.138;2022-12-07T15:13:52;7.07;;;1.00;;
20411;SDS011;10365;52.578;8.138;2022-12-07T15:16:33;5.75;;;1.00;;
20411;SDS011;10365;52.578;8.138;2022-12-07T15:18:59;7.13;;;0.80;;
20411;SDS011;10365;52.578;8.138;2022-12-07T15:21:24;4.60;;;0.95;;
20411;SDS011;10365;52.578;8.138;2022-12-07T15:23:50;7.88;;;1.38;;
20411;SDS011;10365;52.578;8.138;2022-12-07T15:26:15;2.78;;;0.88;;
20411;SDS011;10365;52.578;8.138;2022-12-07T15:28:41;5.93;;;1.10;;
20411;SDS011;10365;52.578;8.138;2022-12-07T15:31:13;7.25;;;1.25;;
20411;SDS011;10365;52.578;8.138;2022-12-07T15:33:39;5.78;;;1.38;;
20411;SDS011;10365;52.578;8.138;2022-12-07T15:36:04;5.50;;;2.00;;
20411;SDS011;10365;52.578;8.138;2022-12-07T15:38:31;2.78;;;0.70;;
20411;SDS011;10365;52.578;8.138;2022-12-07T15:40:56;8.73;;;1.45;;
20411;SDS011;10365;52.578;8.138;2022-12-07T15:43:22;7.63;;;1.73;;
20411;SDS011;10365;52.578;8.138;2022-12-07T15:46:05;6.55;;;0.95;;
20411;SDS011;10365;52.578;8.138;2022-12-07T15:48:32;6.03;;;1.60;;
20411;SDS011;10365;52.578;8.138;2022-12-07T15:51:01;6.15;;;0.80;;
20411;SDS011;10365;52.578;8.138;2022-12-07T15:53:27;4.03;;;1.00;;
20411;SDS011;10365;52.578;8.138;2022-12-07T15:55:52;6.07;;;1.17;;
20411;SDS011;10365;52.578;8.138;2022-12-07T16:00:47;4.47;;;0.70;;
20411;SDS011;10365;52.578;8.138;2022-12-07T16:03:13;6.57;;;0.90;;
20411;SDS011;10365;52.578;8.138;2022-12-07T16:05:38;6.38;;;0.85;;
20411;SDS011;10365;52.578;8.138;2022-12-07T16:08:04;6.22;;;1.00;;
20411;SDS011;10365;52.578;8.138;2022-12-07T16:10:29;7.10;;;1.00;;
20411;SDS011;10365;52.578;8.138;2022-12-07T16:12:54;10.50;;;1.25;;
20411;SDS011;10365;52.578;8.138;2022-12-07T16:15:20;6.93;;;1.75;;
20411;SDS011;10365;52.578;8.138;2022-12-07T16:17:46;6.35;;;0.90;;
20411;SDS011;10365;52.578;8.138;2022-12-07T16:20:11;6.05;;;1.08;;
20411;SDS011;10365;52.578;8.138;2022-12-07T16:22:37;3.40;;;1.00;;
20411;SDS011;10365;52.578;8.138;2022-12-07T16:25:02;6.90;;;1.90;;
20411;SDS011;10365;52.578;8.138;2022-12-07T16:27:27;13.55;;;1.38;;
20411;SDS011;10365;52.578;8.138;2022-12-07T16:29:53;5.85;;;1.80;;
20411;SDS011;10365;52.578;8.138;2022-12-07T16:32:18;10.75;;;1.83;;
20411;SDS011;10365;52.578;8.138;2022-12-07T16:34:43;10.30;;;1.40;;
20411;SDS011;10365;52.578;8.138;2022-12-07T16:37:09;8.90;;;1.50;;
20411;SDS011;10365;52.578;8.138;2022-12-07T16:39:34;10.15;;;1.75;;
20411;SDS011;10365;52.578;8.138;2022-12-07T16:42:00;5.20;;;1.38;;
20411;SDS011;10365;52.578;8.138;2022-12-07T16:44:25;7.65;;;2.08;;
20411;SDS011;10365;52.578;8.138;2022-12-07T16:46:51;9.52;;;1.55;;
20411;SDS011;10365;52.578;8.138;2022-12-07T16:49:17;10.00;;;2.78;;